Time;durP1;ratioP1;P1;durP2;ratioP2;P2;SDS_P1;SDS_P2;PMS_P1;PMS_P2;Temp;Humidity;BMP_temperature;BMP_pressure;BME280_temperature;BME280_humidity;BME280_pressure;Samples;Min_cycle;Max_cycle;Signal;HPM_P1;HPM_P2
2023/03/12 00:00:39;;;;;;;1.15;1.05;;;;;;;5.29;51.24;100501.88;4991638;28;20064;-86
2023/03/12 00:03:05;;;;;;;1.58;1.25;;;;;;;5.23;50.52;100490.97;4991529;28;20036;-86
2023/03/12 00:05:31;;;;;;;1.35;0.80;;;;;;;5.22;50.20;100512.38;4991227;28;20053;-85
2023/03/12 00:07:58;;;;;;;1.88;1.38;;;;;;;5.07;49.70;100486.28;4975498;28;20038;-86
2023/03/12 00:10:25;;;;;;;0.40;0.40;;;;;;;5.22;50.17;100513.22;4975569;28;20069;-86
2023/03/12 00:12:51;;;;;;;1.17;1.08;;;;;;;5.24;49.57;100520.88;4959036;28;20041;-86
2023/03/12 00:15:16;;;;;;;1.35;1.23;;;;;;;5.16;49.61;100523.63;4975178;28;20030;-86
2023/03/12 00:17:41;;;;;;;1.92;1.00;;;;;;;5.09;49.82;100510.16;5007501;28;20191;-86
2023/03/12 00:20:08;;;;;;;1.15;0.70;;;;;;;5.21;50.27;100513.25;4974737;28;20027;-86
2023/03/12 00:22:34;;;;;;;0.43;0.30;;;;;;;5.15;49.57;100509.97;4975082;28;20057;-87
2023/03/12 00:24:59;;;;;;;1.50;0.95;;;;;;;5.14;49.56;100515.16;4974966;28;20488;-86
2023/03/12 00:27:26;;;;;;;2.03;1.15;;;;;;;5.06;49.98;100525.63;4991288;28;20038;-86
2023/03/12 00:29:51;;;;;;;1.00;0.88;;;;;;;5.11;49.52;100528.03;4990771;28;20037;-86
2023/03/12 00:32:17;;;;;;;0.85;0.77;;;;;;;5.01;50.20;100522.34;4991787;28;20109;-85
2023/03/12 00:34:42;;;;;;;1.15;0.50;;;;;;;5.02;50.51;100536.03;4958254;28;20041;-86
2023/03/12 00:37:08;;;;;;;1.13;0.73;;;;;;;4.89;50.81;100500.44;4990722;28;20026;-86
2023/03/12 00:39:33;;;;;;;1.15;0.85;;;;;;;5.05;50.42;100518.81;4958426;28;20022;-86
2023/03/12 00:41:59;;;;;;;4.68;0.70;;;;;;;4.98;50.20;100513.88;4991162;28;20030;-86
2023/03/12 00:44:25;;;;;;;0.90;0.80;;;;;;;4.79;50.56;100490.47;4990692;28;20035;-86
2023/03/12 00:46:50;;;;;;;1.15;1.05;;;;;;;4.95;49.86;100526.81;5006990;28;20029;-86
2023/03/12 00:49:16;;;;;;;0.60;0.60;;;;;;;4.88;51.80;100495.38;4990287;28;20034;-86
2023/03/12 00:51:41;;;;;;;2.60;0.50;;;;;;;4.64;50.59;100466.13;4957975;28;20034;-86
2023/03/12 00:54:07;;;;;;;1.45;0.75;;;;;;;5.02;50.53;100521.47;5007029;28;20029;-86
2023/03/12 00:56:32;;;;;;;3.33;1.13;;;;;;;5.05;51.80;100523.09;4990512;28;20050;-86
2023/03/12 00:58:58;;;;;;;2.08;1.58;;;;;;;4.98;50.99;100522.41;4974475;28;20038;-86
2023/03/12 01:01:23;;;;;;;0.73;0.63;;;;;;;5.05;51.19;100538.50;4990512;28;20041;-85
2023/03/12 01:03:50;;;;;;;1.30;0.95;;;;;;;4.90;50.95;100532.88;4973723;28;20030;-85
2023/03/12 01:06:16;;;;;;;0.95;0.88;;;;;;;4.97;51.63;100545.53;4974677;28;20053;-86
2023/03/12 01:08:42;;;;;;;1.33;1.02;;;;;;;4.90;52.09;100548.25;4974589;28;20408;-86
2023/03/12 01:11:07;;;;;;;1.73;1.27;;;;;;;4.84;51.97;100545.03;4974008;28;20030;-86
2023/03/12 01:13:33;;;;;;;0.40;0.40;;;;;;;4.78;52.92;100545.19;4957785;28;20050;-86
2023/03/12 01:15:58;;;;;;;0.93;0.80;;;;;;;4.73;52.83;100542.75;4990310;28;20447;-86
2023/03/12 01:18:23;;;;;;;0.73;0.60;;;;;;;4.69;52.77;100556.53;4973709;28;20026;-85
2023/03/12 01:20:49;;;;;;;1.25;0.80;;;;;;;4.63;53.43;100572.06;4974352;28;20530;-86
2023/03/12 01:23:15;;;;;;;0.75;0.60;;;;;;;4.59;54.29;100568.72;4974415;28;20438;-86
2023/03/12 01:25:40;;;;;;;2.17;1.23;;;;;;;4.63;54.17;100566.94;4957879;28;20033;-86
2023/03/12 01:28:06;;;;;;;0.85;0.60;;;;;;;4.70;53.72;100578.69;4957927;28;20034;-86
2023/03/12 01:30:31;;;;;;;1.33;1.23;;;;;;;4.63;54.98;100592.56;4989926;28;20030;-86
2023/03/12 01:32:57;;;;;;;1.27;0.63;;;;;;;4.63;54.80;100587.44;4973697;28;20026;-86
2023/03/12 01:35:22;;;;;;;0.47;0.47;;;;;;;4.63;54.51;100584.88;4974018;28;20031;-86
2023/03/12 01:37:48;;;;;;;1.77;1.08;;;;;;;4.71;53.82;100589.78;4989815;28;20034;-86
2023/03/12 01:40:15;;;;;;;1.33;1.23;;;;;;;4.58;55.31;100584.13;4991295;28;20404;-86
2023/03/12 01:42:40;;;;;;;2.70;1.00;;;;;;;4.70;54.86;100604.31;4990043;28;20117;-86
2023/03/12 01:45:44;;;;;;;2.40;1.60;;;;;;;4.77;54.10;100621.25;4989857;28;20412;-86
2023/03/12 01:48:10;;;;;;;4.15;1.95;;;;;;;4.65;54.31;100600.22;4991177;28;20492;-86
2023/03/12 01:50:35;;;;;;;5.50;1.45;;;;;;;4.77;54.37;100622.97;4990015;28;20038;-86
2023/03/12 01:53:01;;;;;;;0.63;0.50;;;;;;;4.67;54.28;100624.91;4973459;28;20519;-86
2023/03/12 01:55:26;;;;;;;0.55;0.43;;;;;;;4.64;54.45;100627.56;4989607;28;20053;-86
2023/03/12 01:57:53;;;;;;;1.20;0.82;;;;;;;4.51;54.44;100603.09;4973303;28;20065;-86
2023/03/12 02:00:21;;;;;;;3.88;2.03;;;;;;;4.56;52.66;100621.78;4989308;28;20492;-86
2023/03/12 02:02:47;;;;;;;0.60;0.60;;;;;;;4.59;52.55;100619.13;4989978;28;20093;-86
2023/03/12 02:05:28;;;;;;;1.17;1.05;;;;;;;4.50;52.09;100624.47;4973799;28;20086;-86
2023/03/12 02:07:54;;;;;;;2.55;0.82;;;;;;;4.52;51.81;100626.13;4990208;28;20412;-86
2023/03/12 02:10:20;;;;;;;1.08;0.73;;;;;;;4.52;51.81;100621.03;4989816;28;20117;-86
2023/03/12 02:12:46;;;;;;;0.60;0.60;;;;;;;4.37;52.37;100621.38;4973746;28;20481;-86
2023/03/12 02:15:11;;;;;;;2.08;1.10;;;;;;;4.23;52.09;100616.56;4957137;28;20045;-86
2023/03/12 02:17:38;;;;;;;4.18;1.45;;;;;;;4.22;52.12;100627.66;4989975;28;20045;-86
2023/03/12 02:20:29;;;;;;;0.60;0.60;;;;;;;4.13;52.75;100633.03;4957658;28;20412;-86
2023/03/12 02:23:14;;;;;;;0.65;0.60;;;;;;;3.98;53.83;100634.19;4980418;28;20522;-86
2023/03/12 02:25:42;;;;;;;1.52;1.05;;;;;;;3.94;54.31;100626.63;4980234;28;20038;-86
2023/03/12 02:28:11;;;;;;;0.77;0.57;;;;;;;3.72;54.78;100615.97;4974087;28;20031;-85
2023/03/12 02:30:36;;;;;;;1.17;0.60;;;;;;;3.64;54.83;100616.16;4974017;28;20041;-86
2023/03/12 02:33:05;;;;;;;0.88;0.73;;;;;;;3.72;54.71;100632.16;4976951;28;20042;-86
2023/03/12 02:35:30;;;;;;;1.33;0.90;;;;;;;3.58;54.02;100621.41;4993173;28;20031;-86
2023/03/12 02:37:56;;;;;;;1.80;0.90;;;;;;;3.62;54.31;100646.03;4992928;28;20109;-86
2023/03/12 02:40:24;;;;;;;0.50;0.50;;;;;;;3.63;54.13;100646.88;4993102;28;20030;-86
2023/03/12 02:42:49;;;;;;;1.35;1.10;;;;;;;3.43;54.56;100634.47;4993043;28;20108;-86
2023/03/12 02:45:15;;;;;;;1.48;1.17;;;;;;;3.66;54.41;100668.13;4976299;28;20563;-86
2023/03/12 02:47:40;;;;;;;0.60;0.60;;;;;;;3.62;54.51;100671.59;4976505;28;20041;-86
2023/03/12 02:50:07;;;;;;;0.68;0.60;;;;;;;3.76;54.70;100685.88;4992705;28;20041;-86
2023/03/12 02:52:35;;;;;;;1.00;0.95;;;;;;;3.68;54.47;100665.53;4992577;28;20084;-86
2023/03/12 02:55:01;;;;;;;0.73;0.60;;;;;;;3.71;53.48;100680.81;4992845;28;20463;-85
2023/03/12 02:57:26;;;;;;;1.05;0.80;;;;;;;3.74;54.09;100685.91;4976182;28;20058;-86
2023/03/12 02:59:52;;;;;;;0.50;0.50;;;;;;;3.57;54.59;100685.38;4992691;28;20138;-86
2023/03/12 03:02:17;;;;;;;1.42;1.25;;;;;;;3.47;55.01;100671.91;4992395;28;20018;-86
2023/03/12 03:04:42;;;;;;;0.93;0.85;;;;;;;3.37;55.01;100663.56;4976545;28;20158;-86
2023/03/12 03:07:08;;;;;;;0.60;0.60;;;;;;;3.24;55.33;100654.44;4992481;28;20026;-86
2023/03/12 03:09:33;;;;;;;0.63;0.63;;;;;;;3.44;54.88;100692.41;4960208;28;20089;-86
2023/03/12 03:11:59;;;;;;;0.43;0.43;;;;;;;3.40;55.17;100690.81;4992408;28;20026;-86
2023/03/12 03:14:24;;;;;;;1.48;1.20;;;;;;;3.43;54.27;100696.69;4976040;28;20030;-86
2023/03/12 03:16:50;;;;;;;0.57;0.47;;;;;;;3.31;55.21;100701.19;4976270;28;20092;-86
2023/03/12 03:19:15;;;;;;;0.68;0.50;;;;;;;3.43;55.39;100714.59;4976184;28;20034;-86
2023/03/12 03:21:42;;;;;;;0.77;0.75;;;;;;;3.55;54.85;100733.19;4992355;28;20494;-86
2023/03/12 03:24:08;;;;;;;1.33;0.82;;;;;;;3.59;53.61;100745.03;4992381;28;20033;-86
2023/03/12 03:26:33;;;;;;;0.85;0.65;;;;;;;3.50;53.37;100733.25;4975801;28;20038;-86
2023/03/12 03:28:59;;;;;;;1.10;0.98;;;;;;;3.68;53.90;100742.31;4975730;28;20031;-86
2023/03/12 03:31:24;;;;;;;1.80;0.50;;;;;;;3.63;53.79;100742.38;4975813;28;20026;-86
2023/03/12 03:33:50;;;;;;;1.15;0.98;;;;;;;3.65;55.07;100748.31;4991827;28;20419;-86
2023/03/12 03:36:16;;;;;;;1.00;0.63;;;;;;;3.52;54.69;100751.94;4992031;28;20034;-86
2023/03/12 03:38:41;;;;;;;2.28;1.65;;;;;;;3.52;55.12;100751.94;4975686;28;20053;-86
2023/03/12 03:41:07;;;;;;;1.00;0.47;;;;;;;3.38;54.78;100747.09;4975372;28;20459;-86
2023/03/12 03:43:32;;;;;;;1.50;0.77;;;;;;;3.28;55.09;100737.91;4975379;28;20034;-86
2023/03/12 03:45:58;;;;;;;0.35;0.35;;;;;;;3.29;55.57;100743.84;4991971;28;20099;-86
2023/03/12 03:48:24;;;;;;;0.90;0.68;;;;;;;3.14;55.52;100730.44;4991804;28;20121;-86
2023/03/12 03:50:49;;;;;;;1.00;0.80;;;;;;;3.17;55.19;100727.84;4975620;28;20061;-86
2023/03/12 03:53:15;;;;;;;0.38;0.38;;;;;;;3.21;55.48;100740.56;4991569;28;20026;-86
2023/03/12 03:55:40;;;;;;;0.65;0.65;;;;;;;3.19;55.99;100747.44;4959229;28;20026;-86
2023/03/12 03:58:06;;;;;;;1.58;1.27;;;;;;;3.22;55.28;100749.94;4975113;28;20026;-85
2023/03/12 04:00:32;;;;;;;1.73;0.45;;;;;;;3.16;55.42;100751.75;4975517;28;20037;-86
2023/03/12 04:02:57;;;;;;;0.68;0.55;;;;;;;3.09;54.99;100737.34;4975216;28;20026;-86
2023/03/12 04:05:23;;;;;;;0.40;0.40;;;;;;;3.29;55.03;100767.72;4991626;28;20100;-86
2023/03/12 04:07:51;;;;;;;1.45;0.98;;;;;;;3.34;54.90;100773.59;4975189;28;20030;-86
2023/03/12 04:10:18;;;;;;;2.50;1.15;;;;;;;3.27;54.91;100750.72;4991165;28;20022;-86
2023/03/12 04:12:44;;;;;;;1.88;1.23;;;;;;;3.38;55.05;100775.22;4991246;28;20477;-86
2023/03/12 04:15:09;;;;;;;2.20;1.35;;;;;;;3.21;54.75;100763.59;4975143;28;20033;-86
2023/03/12 04:17:35;;;;;;;0.88;0.50;;;;;;;3.24;54.61;100760.97;4958997;28;20473;-86
2023/03/12 04:20:00;;;;;;;3.13;0.85;;;;;;;3.26;55.40;100782.25;4974795;28;20026;-85
2023/03/12 04:22:26;;;;;;;0.73;0.63;;;;;;;3.17;55.62;100765.38;4991204;28;20031;-86
2023/03/12 04:24:51;;;;;;;0.32;0.32;;;;;;;3.13;55.97;100762.00;4992150;28;20026;-86
2023/03/12 04:27:17;;;;;;;1.27;0.63;;;;;;;2.87;55.59;100715.59;4974264;28;20041;-86
2023/03/12 04:29:42;;;;;;;0.57;0.57;;;;;;;3.17;55.34;100781.53;4990723;28;20030;-86
2023/03/12 04:32:08;;;;;;;0.75;0.75;;;;;;;3.16;55.15;100774.75;4990684;28;20516;-86
2023/03/12 04:34:33;;;;;;;0.73;0.73;;;;;;;3.12;55.05;100778.19;4974710;28;20037;-86
2023/03/12 04:37:01;;;;;;;0.50;0.43;;;;;;;3.31;54.91;100806.03;4958710;28;20058;-86
2023/03/12 04:39:27;;;;;;;0.30;0.30;;;;;;;3.23;55.61;100810.41;4958557;28;20033;-86
2023/03/12 04:41:52;;;;;;;0.90;0.55;;;;;;;3.36;55.04;100817.88;4990288;28;20034;-86
2023/03/12 04:44:18;;;;;;;0.95;0.73;;;;;;;3.37;55.13;100826.41;4990750;28;20496;-86
2023/03/12 04:46:43;;;;;;;0.57;0.57;;;;;;;3.45;54.74;100822.00;4974598;28;20130;-86
2023/03/12 04:49:09;;;;;;;1.42;1.15;;;;;;;3.43;54.51;100828.84;4974102;28;20393;-86
2023/03/12 04:51:34;;;;;;;0.93;0.82;;;;;;;3.42;55.38;100825.44;4974082;28;20030;-85
2023/03/12 04:54:00;;;;;;;0.90;0.77;;;;;;;3.35;55.25;100813.66;4957669;28;20492;-86
2023/03/12 04:56:25;;;;;;;0.88;0.70;;;;;;;3.31;55.23;100823.94;4990068;28;20054;-86
2023/03/12 04:58:51;;;;;;;1.48;1.05;;;;;;;3.28;55.12;100822.28;4958317;28;20502;-86
2023/03/12 05:01:32;;;;;;;1.02;0.93;;;;;;;3.24;55.58;100818.06;4974312;28;20030;-86
2023/03/12 05:03:58;;;;;;;1.55;0.57;;;;;;;3.18;55.08;100833.50;4990305;28;20033;-86
2023/03/12 05:06:24;;;;;;;1.70;1.40;;;;;;;3.14;55.13;100832.69;4990286;28;20034;-85
2023/03/12 05:08:49;;;;;;;1.00;0.80;;;;;;;3.25;54.57;100841.94;4974053;28;20037;-86
2023/03/12 05:11:15;;;;;;;1.25;0.98;;;;;;;3.28;54.87;100847.00;4974276;28;20065;-86
2023/03/12 05:13:42;;;;;;;1.15;0.98;;;;;;;3.29;54.95;100846.13;5006035;28;20057;-86
2023/03/12 05:16:07;;;;;;;0.30;0.30;;;;;;;3.43;55.11;100865.50;4990692;28;20038;-86
2023/03/12 05:18:33;;;;;;;0.50;0.50;;;;;;;3.42;54.89;100875.75;4974209;28;20512;-86
2023/03/12 05:21:19;;;;;;;1.58;1.35;;;;;;;3.36;55.52;100876.72;4990192;28;20472;-85
2023/03/12 05:23:44;;;;;;;0.95;0.85;;;;;;;3.26;55.01;100852.16;4989446;28;20046;-86
2023/03/12 05:26:16;;;;;;;2.20;1.27;;;;;;;3.31;55.38;100854.63;4957845;28;20026;-86
2023/03/12 05:28:41;;;;;;;1.38;0.95;;;;;;;3.50;54.50;100886.72;4990134;28;20059;-86
2023/03/12 05:31:08;;;;;;;0.77;0.77;;;;;;;3.42;54.57;100886.81;4989921;28;20026;-86
2023/03/12 05:33:33;;;;;;;1.17;1.08;;;;;;;3.33;55.39;100881.00;4957975;28;20038;-86
2023/03/12 05:35:58;;;;;;;2.00;1.17;;;;;;;3.49;54.69;100889.31;4974014;28;20031;-85
2023/03/12 05:38:24;;;;;;;1.02;1.00;;;;;;;3.39;54.62;100896.25;4989772;28;20026;-86
2023/03/12 05:40:53;;;;;;;2.00;0.82;;;;;;;3.27;54.78;100878.56;4973937;28;20038;-86
2023/03/12 05:43:18;;;;;;;1.48;1.13;;;;;;;3.24;55.44;100886.25;4974156;28;20050;-86
2023/03/12 05:45:44;;;;;;;2.15;0.85;;;;;;;2.97;55.67;100852.56;5006293;28;20073;-85
2023/03/12 05:48:09;;;;;;;1.98;0.55;;;;;;;3.14;56.02;100873.59;4991228;28;20034;-86
2023/03/12 05:50:35;;;;;;;3.03;1.58;;;;;;;3.17;56.95;100868.47;4989977;28;20034;-86
2023/03/12 05:53:00;;;;;;;1.20;0.98;;;;;;;3.37;55.66;100900.56;4973363;28;20034;-85
2023/03/12 05:55:25;;;;;;;1.10;1.00;;;;;;;3.29;55.47;100887.88;4989728;28;20507;-85
2023/03/12 05:57:51;;;;;;;1.80;1.05;;;;;;;3.31;55.23;100895.53;4989764;28;20054;-86
2023/03/12 06:00:17;;;;;;;2.63;1.42;;;;;;;3.28;54.97;100890.47;4973646;28;20049;-86
2023/03/12 06:02:42;;;;;;;2.22;1.33;;;;;;;3.21;55.90;100905.03;4989815;28;20034;-86
2023/03/12 06:05:09;;;;;;;1.65;1.27;;;;;;;3.07;55.64;100881.41;4991190;28;20038;-86
2023/03/12 06:07:35;;;;;;;0.77;0.70;;;;;;;3.08;56.59;100893.31;4993405;28;20022;-85
2023/03/12 06:10:00;;;;;;;0.68;0.63;;;;;;;3.16;55.68;100907.69;4993575;28;20411;-86
2023/03/12 06:12:26;;;;;;;0.85;0.85;;;;;;;3.21;55.51;100925.50;4993401;28;20166;-86
2023/03/12 06:14:51;;;;;;;1.80;1.50;;;;;;;3.31;55.55;100946.69;4993214;28;20022;-85
2023/03/12 06:17:16;;;;;;;1.58;0.68;;;;;;;3.17;55.40;100917.03;5009811;28;20030;-85
2023/03/12 06:19:42;;;;;;;1.35;1.25;;;;;;;3.17;55.96;100917.03;4977258;28;20041;-85
2023/03/12 06:22:08;;;;;;;1.00;0.85;;;;;;;3.25;55.81;100931.44;4992808;28;20030;-86
2023/03/12 06:24:33;;;;;;;1.48;1.10;;;;;;;3.29;55.01;100948.41;4976908;28;20026;-85
2023/03/12 06:26:59;;;;;;;0.95;0.57;;;;;;;3.41;55.28;100956.75;4993325;28;20038;-86
2023/03/12 06:29:24;;;;;;;0.75;0.75;;;;;;;3.37;55.37;100942.34;4976881;28;20026;-86
2023/03/12 06:31:51;;;;;;;1.23;1.10;;;;;;;3.53;55.63;100962.56;4992920;28;20105;-85
2023/03/12 06:34:16;;;;;;;1.83;0.80;;;;;;;3.62;54.64;100965.81;4993252;28;20146;-85
2023/03/12 06:36:42;;;;;;;2.92;1.67;;;;;;;3.63;54.72;100941.94;4992757;28;20049;-86
2023/03/12 06:39:08;;;;;;;1.08;0.93;;;;;;;3.72;54.59;100957.13;4976812;28;20030;-86
2023/03/12 06:41:34;;;;;;;2.60;2.45;;;;;;;3.77;54.31;100969.88;4977025;28;20464;-86
2023/03/12 06:44:02;;;;;;;0.88;0.88;;;;;;;3.55;54.32;100930.16;4977170;28;20101;-85
2023/03/12 06:46:28;;;;;;;1.08;0.98;;;;;;;3.72;53.98;100953.72;4993047;28;20034;-86
2023/03/12 06:48:53;;;;;;;0.30;0.30;;;;;;;4.02;53.05;100978.00;4992647;28;20034;-85
2023/03/12 06:51:19;;;;;;;1.55;1.45;;;;;;;4.08;53.05;100954.03;5008638;28;20093;-86
2023/03/12 06:53:45;;;;;;;0.80;0.60;;;;;;;4.25;52.66;100970.78;4976629;28;20026;-85
2023/03/12 06:56:10;;;;;;;1.20;0.82;;;;;;;4.41;51.90;100994.41;4992646;28;20054;-86
2023/03/12 06:58:36;;;;;;;0.60;0.60;;;;;;;4.38;50.68;100961.16;4960356;28;20038;-86
2023/03/12 07:01:01;;;;;;;2.85;1.58;;;;;;;4.50;49.75;101006.22;4992438;28;20030;-86
2023/03/12 07:03:27;;;;;;;1.65;1.25;;;;;;;4.62;48.69;100990.59;4976752;28;20519;-86
2023/03/12 07:05:54;;;;;;;1.20;1.08;;;;;;;4.61;48.80;100976.09;4993535;28;20035;-85
2023/03/12 07:08:20;;;;;;;0.95;0.60;;;;;;;4.85;49.13;100978.22;4976922;28;20026;-86
2023/03/12 07:10:45;;;;;;;1.35;1.00;;;;;;;5.04;48.30;101004.34;5009135;28;20049;-85
2023/03/12 07:13:10;;;;;;;0.60;0.60;;;;;;;5.13;48.21;100998.19;4976328;28;20030;-86
2023/03/12 07:15:36;;;;;;;0.98;0.68;;;;;;;5.18;47.87;100997.19;4992567;28;20412;-86
2023/03/12 07:18:08;;;;;;;1.05;0.98;;;;;;;5.29;46.77;101019.19;4959135;28;20031;-86
2023/03/12 07:20:38;;;;;;;0.93;0.93;;;;;;;5.27;45.62;101006.41;4976245;28;20030;-86
2023/03/12 07:23:04;;;;;;;1.67;1.23;;;;;;;5.38;46.52;101024.16;4992107;28;20512;-86
2023/03/12 07:25:29;;;;;;;0.68;0.68;;;;;;;5.42;45.59;101011.22;4976060;28;20035;-86
2023/03/12 07:27:54;;;;;;;1.70;1.10;;;;;;;5.65;46.00;101027.84;4975995;28;20031;-86
2023/03/12 07:30:20;;;;;;;0.77;0.45;;;;;;;5.56;46.26;101004.94;4976037;28;20034;-85
2023/03/12 07:32:45;;;;;;;1.77;1.33;;;;;;;5.56;46.28;100984.41;4975699;28;20412;-86
2023/03/12 07:35:11;;;;;;;1.73;1.50;;;;;;;5.83;45.57;101021.47;4975582;28;20032;-86
2023/03/12 07:37:36;;;;;;;0.77;0.70;;;;;;;5.80;44.84;101024.94;4975722;28;20034;-86
2023/03/12 07:40:06;;;;;;;1.88;1.52;;;;;;;5.89;45.40;101032.41;4976173;28;20116;-86
2023/03/12 07:42:31;;;;;;;1.02;0.95;;;;;;;5.79;45.09;101023.22;4991795;28;20154;-86
2023/03/12 07:44:57;;;;;;;0.77;0.65;;;;;;;5.87;44.51;101031.59;4975410;28;20556;-86
2023/03/12 07:47:22;;;;;;;1.92;1.38;;;;;;;5.92;44.34;101026.41;4991568;28;20037;-86
2023/03/12 07:49:48;;;;;;;1.05;0.77;;;;;;;5.93;45.42;101013.53;4975312;28;20093;-85
2023/03/12 07:52:14;;;;;;;0.57;0.57;;;;;;;6.26;46.15;101036.72;4991748;28;20393;-85
2023/03/12 07:54:39;;;;;;;0.93;0.70;;;;;;;6.16;44.95;101020.69;4991478;28;20030;-86
2023/03/12 07:57:05;;;;;;;1.58;1.30;;;;;;;6.19;44.53;101022.31;4991446;28;20046;-86
2023/03/12 07:59:31;;;;;;;2.08;1.33;;;;;;;6.19;45.12;101010.31;4991859;28;20427;-86
2023/03/12 08:01:56;;;;;;;1.95;1.08;;;;;;;6.22;44.35;101025.69;4991341;28;20027;-86
2023/03/12 08:04:22;;;;;;;1.13;0.88;;;;;;;6.47;44.29;101038.75;4974938;28;20554;-86
2023/03/12 08:06:47;;;;;;;2.60;1.73;;;;;;;6.37;44.14;101042.44;4991672;28;20041;-85
2023/03/12 08:09:13;;;;;;;0.70;0.63;;;;;;;6.45;43.40;101043.09;4991223;28;20023;-85
2023/03/12 08:11:38;;;;;;;0.95;0.85;;;;;;;6.64;45.10;101037.47;4991111;28;20385;-86
2023/03/12 08:14:04;;;;;;;1.35;0.80;;;;;;;6.53;43.55;101037.75;4992676;28;20030;-86
2023/03/12 08:16:29;;;;;;;1.55;1.25;;;;;;;6.59;43.56;101061.59;4974975;28;20061;-86
2023/03/12 08:18:55;;;;;;;0.85;0.80;;;;;;;6.41;44.09;100994.38;4990943;28;20061;-86
2023/03/12 08:21:20;;;;;;;0.77;0.57;;;;;;;6.73;41.65;101068.09;5007516;28;20022;-85
2023/03/12 08:23:46;;;;;;;0.52;0.50;;;;;;;6.78;41.97;101058.50;4991205;28;20030;-85
2023/03/12 08:26:11;;;;;;;1.05;0.95;;;;;;;6.88;42.32;101068.53;4991126;28;20033;-85
2023/03/12 08:28:37;;;;;;;0.55;0.55;;;;;;;6.95;41.84;101043.47;4990218;28;20435;-86
2023/03/12 08:31:02;;;;;;;0.40;0.40;;;;;;;7.04;41.72;101074.09;4990862;28;21123;-86
2023/03/12 08:33:28;;;;;;;1.10;0.73;;;;;;;7.24;41.64;101070.97;4958470;28;20038;-86
2023/03/12 08:35:53;;;;;;;0.98;0.73;;;;;;;7.24;39.60;101077.84;4974719;28;20038;-86
2023/03/12 08:38:19;;;;;;;1.58;1.10;;;;;;;7.21;40.52;101080.53;4974716;28;20037;-85
2023/03/12 08:40:44;;;;;;;0.95;0.75;;;;;;;7.22;40.35;101087.34;4990929;28;20039;-86
2023/03/12 08:43:10;;;;;;;0.95;0.63;;;;;;;7.24;39.89;101081.28;4990516;28;20105;-86
2023/03/12 08:45:35;;;;;;;1.38;1.00;;;;;;;7.07;39.68;101081.72;4974536;28;20026;-86
2023/03/12 08:48:02;;;;;;;1.08;0.80;;;;;;;7.06;39.96;101097.22;4990762;28;20042;-86
2023/03/12 08:50:29;;;;;;;1.08;0.90;;;;;;;7.05;40.27;101111.81;4990639;28;20034;-85
2023/03/12 08:52:55;;;;;;;0.68;0.52;;;;;;;7.00;40.18;101069.09;4990406;28;20037;-86
2023/03/12 08:55:20;;;;;;;2.05;0.85;;;;;;;7.27;39.69;101129.25;4990502;28;20477;-86
2023/03/12 08:57:46;;;;;;;2.63;1.35;;;;;;;7.13;39.50;101093.59;4974393;28;20105;-86
2023/03/12 09:00:14;;;;;;;0.52;0.50;;;;;;;7.30;39.39;101100.88;4974244;28;20026;-86
2023/03/12 09:02:43;;;;;;;0.40;0.40;;;;;;;7.49;39.49;101117.47;4990492;28;20048;-86
2023/03/12 09:05:10;;;;;;;0.65;0.65;;;;;;;7.39;39.11;101100.59;4974805;28;20033;-86
2023/03/12 09:07:35;;;;;;;0.55;0.55;;;;;;;7.45;39.03;101121.00;4974406;28;20113;-85
2023/03/12 09:10:01;;;;;;;1.58;1.25;;;;;;;7.56;38.37;101118.97;4974644;28;20089;-85
2023/03/12 09:12:26;;;;;;;1.63;1.30;;;;;;;7.57;37.61;101114.66;4974017;28;20092;-86
2023/03/12 09:14:52;;;;;;;0.30;0.30;;;;;;;7.48;38.85;101123.53;4973844;28;20074;-86
2023/03/12 09:17:17;;;;;;;0.77;0.52;;;;;;;7.50;38.95;101105.44;4989976;28;20463;-86
2023/03/12 09:19:43;;;;;;;1.70;1.27;;;;;;;7.51;39.21;101102.00;4990353;28;20053;-86
2023/03/12 09:22:09;;;;;;;2.03;1.17;;;;;;;7.64;38.04;101124.75;4975747;28;20031;-85
2023/03/12 09:24:34;;;;;;;0.90;0.52;;;;;;;7.77;38.04;101143.28;4984397;28;20491;-86
2023/03/12 09:27:00;;;;;;;0.65;0.63;;;;;;;7.86;38.41;101137.84;4986274;28;20049;-86
2023/03/12 09:29:26;;;;;;;1.67;1.13;;;;;;;7.85;37.93;101138.72;4954952;28;20500;-86
2023/03/12 09:31:51;;;;;;;1.35;0.88;;;;;;;7.96;37.15;101148.72;4968674;28;20026;-86
2023/03/12 09:34:17;;;;;;;1.55;1.08;;;;;;;7.97;37.76;101140.13;4968253;28;20030;-86
2023/03/12 09:36:42;;;;;;;0.82;0.80;;;;;;;8.12;37.72;101138.81;4987050;28;20030;-86
2023/03/12 09:39:08;;;;;;;1.35;1.10;;;;;;;8.29;37.18;101147.72;4987466;28;20120;-86
2023/03/12 09:41:37;;;;;;;1.55;1.13;;;;;;;8.25;38.15;101140.09;4974956;28;20038;-86
2023/03/12 09:44:15;;;;;;;1.15;1.05;;;;;;;8.39;38.03;101144.88;5006365;28;20120;-86
2023/03/12 09:46:47;;;;;;;0.65;0.55;;;;;;;8.30;36.67;101149.41;5006697;28;20073;-85
2023/03/12 09:49:18;;;;;;;1.50;1.00;;;;;;;8.40;36.48;101155.13;4990905;28;20109;-86
2023/03/12 09:51:45;;;;;;;1.98;0.95;;;;;;;8.36;35.54;101150.13;4974770;28;20412;-86
2023/03/12 09:54:40;;;;;;;0.45;0.45;;;;;;;8.15;36.06;101134.38;4988574;28;20026;-86
2023/03/12 09:57:10;;;;;;;1.42;0.85;;;;;;;8.20;36.87;101114.50;4959657;28;20057;-86
2023/03/12 09:59:36;;;;;;;0.65;0.50;;;;;;;8.40;36.55;101155.13;4972948;28;20062;-86
2023/03/12 10:02:03;;;;;;;3.42;1.20;;;;;;;8.43;35.94;101156.78;4974216;28;20027;-86
2023/03/12 10:04:42;;;;;;;1.58;1.08;;;;;;;8.54;37.32;101167.59;4974316;28;20141;-86
2023/03/12 10:07:18;;;;;;;1.55;0.88;;;;;;;8.46;36.50;101159.28;4959621;28;20041;-86
2023/03/12 10:09:58;;;;;;;2.63;1.95;;;;;;;8.82;37.09;101172.69;4958669;28;20117;-86
2023/03/12 10:12:32;;;;;;;0.70;0.60;;;;;;;8.96;36.37;101173.09;4973983;28;20034;-86
2023/03/12 10:15:30;;;;;;;0.85;0.60;;;;;;;8.67;36.41;101179.22;4975225;28;20093;-86
2023/03/12 10:18:01;;;;;;;0.90;0.73;;;;;;;8.96;35.69;101174.84;4973697;28;20066;-86
2023/03/12 10:20:46;;;;;;;1.45;1.27;;;;;;;8.94;36.34;101166.28;4975466;28;20085;-85
2023/03/12 10:23:22;;;;;;;0.43;0.40;;;;;;;8.95;34.87;101157.66;4974864;28;20037;-86
2023/03/12 10:26:01;;;;;;;1.02;0.55;;;;;;;9.02;36.22;101174.63;4957844;28;20155;-86
2023/03/12 10:28:50;;;;;;;0.38;0.38;;;;;;;8.96;36.44;101177.41;4973715;28;20058;-86
2023/03/12 10:31:33;;;;;;;1.85;0.82;;;;;;;8.96;35.43;101155.03;4975577;28;20511;-85
2023/03/12 10:33:59;;;;;;;;;;;;;;;9.20;36.06;101184.31;4974103;28;20082;-86
2023/03/12 10:36:28;;;;;;;1.45;1.20;;;;;;;9.06;36.71;101171.06;4989896;28;20303;-87
2023/03/12 10:38:54;;;;;;;0.40;0.35;;;;;;;9.15;36.57;101170.75;4973635;28;20481;-85
2023/03/12 10:41:24;;;;;;;1.10;0.90;;;;;;;9.45;35.99;101169.66;4973692;28;20046;-88
2023/03/12 10:43:50;;;;;;;2.20;1.02;;;;;;;9.59;36.39;101160.56;4957401;28;20038;-85
2023/03/12 10:46:36;;;;;;;0.45;0.45;;;;;;;9.61;35.63;101167.38;4973627;28;20031;-85
2023/03/12 10:49:37;;;;;;;1.23;0.90;;;;;;;9.62;35.53;101165.63;4973292;28;20023;-86
2023/03/12 10:52:16;;;;;;;1.38;1.20;;;;;;;9.67;34.73;101159.41;4971411;28;20042;-85
2023/03/12 10:54:43;;;;;;;1.00;0.75;;;;;;;9.66;34.95;101172.38;4987199;28;20046;-87
2023/03/12 10:57:09;;;;;;;1.73;0.70;;;;;;;9.58;34.63;101156.31;4989494;28;20133;-86
2023/03/12 10:59:36;;;;;;;0.75;0.65;;;;;;;9.64;34.95;101161.25;4973887;28;20035;-82
2023/03/12 11:02:02;;;;;;;0.80;0.55;;;;;;;9.76;34.61;101163.38;4973879;28;20101;-86
2023/03/12 11:04:31;;;;;;;0.70;0.60;;;;;;;9.49;35.72;101134.22;4973267;28;20412;-88
2023/03/12 11:07:15;;;;;;;1.95;1.35;;;;;;;9.55;34.74;101133.19;4957686;28;20070;-83
2023/03/12 11:09:40;;;;;;;1.25;0.82;;;;;;;9.83;36.38;101130.41;4958481;28;20162;-84
2023/03/12 11:12:23;;;;;;;1.77;1.25;;;;;;;9.90;34.80;101140.44;4973087;28;20036;-85
2023/03/12 11:14:48;;;;;;;2.85;1.50;;;;;;;9.93;34.16;101144.66;4957208;28;20026;-85
2023/03/12 11:17:21;;;;;;;1.98;1.42;;;;;;;9.84;34.22;101122.59;4957099;28;20527;-84
2023/03/12 11:19:47;;;;;;;1.48;0.88;;;;;;;9.94;34.66;101141.19;4957268;28;20074;-85
2023/03/12 11:22:15;;;;;;;1.48;0.98;;;;;;;9.95;34.29;101143.72;4940881;28;20054;-86
2023/03/12 11:25:02;;;;;;;1.27;1.17;;;;;;;9.73;34.62;101135.94;4956786;28;20034;-85
2023/03/12 11:27:31;;;;;;;1.45;0.95;;;;;;;9.97;36.02;101138.47;4971960;28;20039;-85
2023/03/12 11:29:56;;;;;;;1.77;1.00;;;;;;;10.04;34.29;101124.44;4973775;28;20030;-85
2023/03/12 11:32:29;;;;;;;0.55;0.55;;;;;;;10.13;35.71;101130.97;4940667;28;20085;-86
2023/03/12 11:34:55;;;;;;;1.90;1.20;;;;;;;10.19;34.71;101110.88;4972681;28;20031;-85